sensor_id;sensor_type;location;lat;lon;timestamp;temperature;humidity
15217;DHT22;7711;46.634;14.318;2023-03-14T00:01:08;11.50;99.90
15217;DHT22;7711;46.634;14.318;2023-03-14T00:03:35;11.60;99.90
15217;DHT22;7711;46.634;14.318;2023-03-14T00:06:03;11.70;99.90
15217;DHT22;7711;46.634;14.318;2023-03-14T00:08:32;11.60;99.90
15217;DHT22;7711;46.634;14.318;2023-03-14T00:11:04;11.80;99.90
15217;DHT22;7711;46.634;14.318;2023-03-14T00:13:31;11.80;99.90
15217;DHT22;7711;46.634;14.318;2023-03-14T00:16:02;11.70;99.90
15217;DHT22;7711;46.634;14.318;2023-03-14T00:18:29;11.70;99.90
15217;DHT22;7711;46.634;14.318;2023-03-14T00:20:57;11.70;99.90
15217;DHT22;7711;46.634;14.318;2023-03-14T00:23:25;11.50;99.90
15217;DHT22;7711;46.634;14.318;2023-03-14T00:25:53;11.50;99.90
15217;DHT22;7711;46.634;14.318;2023-03-14T00:28:20;11.50;99.90
15217;DHT22;7711;46.634;14.318;2023-03-14T00:30:47;11.60;99.90
15217;DHT22;7711;46.634;14.318;2023-03-14T00:33:14;11.40;99.90
15217;DHT22;7711;46.634;14.318;2023-03-14T00:35:41;11.20;99.90
15217;DHT22;7711;46.634;14.318;2023-03-14T00:38:08;11.30;99.90
15217;DHT22;7711;46.634;14.318;2023-03-14T00:40:39;11.20;99.90
15217;DHT22;7711;46.634;14.318;2023-03-14T00:43:08;11.10;99.90
15217;DHT22;7711;46.634;14.318;2023-03-14T00:45:34;11.00;99.90
15217;DHT22;7711;46.634;14.318;2023-03-14T00:48:01;10.80;99.90
15217;DHT22;7711;46.634;14.318;2023-03-14T00:50:28;10.70;99.90
15217;DHT22;7711;46.634;14.318;2023-03-14T00:52:55;10.60;99.90
15217;DHT22;7711;46.634;14.318;2023-03-14T00:55:22;10.70;99.90
15217;DHT22;7711;46.634;14.318;2023-03-14T00:57:49;10.60;99.90
15217;DHT22;7711;46.634;14.318;2023-03-14T01:00:18;10.50;99.90
15217;DHT22;7711;46.634;14.318;2023-03-14T01:02:45;10.40;99.90
15217;DHT22;7711;46.634;14.318;2023-03-14T01:05:12;10.40;99.90
15217;DHT22;7711;46.634;14.318;2023-03-14T01:07:39;10.50;99.90
15217;DHT22;7711;46.634;14.318;2023-03-14T01:10:07;10.50;99.90
15217;DHT22;7711;46.634;14.318;2023-03-14T01:12:34;10.50;99.90
15217;DHT22;7711;46.634;14.318;2023-03-14T01:15:02;10.60;99.90
15217;DHT22;7711;46.634;14.318;2023-03-14T01:17:30;10.40;99.90
15217;DHT22;7711;46.634;14.318;2023-03-14T01:19:57;10.30;99.90
15217;DHT22;7711;46.634;14.318;2023-03-14T01:22:24;10.40;99.90
15217;DHT22;7711;46.634;14.318;2023-03-14T01:24:51;10.30;99.90
15217;DHT22;7711;46.634;14.318;2023-03-14T01:27:18;10.30;99.90
15217;DHT22;7711;46.634;14.318;2023-03-14T01:29:45;10.40;99.90
15217;DHT22;7711;46.634;14.318;2023-03-14T01:32:13;10.60;99.90
15217;DHT22;7711;46.634;14.318;2023-03-14T01:34:41;10.50;99.90
15217;DHT22;7711;46.634;14.318;2023-03-14T01:37:08;10.40;99.90
15217;DHT22;7711;46.634;14.318;2023-03-14T01:39:37;10.50;99.90
15217;DHT22;7711;46.634;14.318;2023-03-14T01:42:04;10.50;99.90
15217;DHT22;7711;46.634;14.318;2023-03-14T01:44:50;10.50;99.90
15217;DHT22;7711;46.634;14.318;2023-03-14T01:47:18;10.40;99.90
15217;DHT22;7711;46.634;14.318;2023-03-14T01:49:48;10.40;99.90
15217;DHT22;7711;46.634;14.318;2023-03-14T01:52:19;10.20;99.90
15217;DHT22;7711;46.634;14.318;2023-03-14T01:54:51;9.90;99.90
15217;DHT22;7711;46.634;14.318;2023-03-14T01:57:22;9.40;99.90
15217;DHT22;7711;46.634;14.318;2023-03-14T01:59:52;9.10;99.90
15217;DHT22;7711;46.634;14.318;2023-03-14T02:02:21;8.80;99.90
15217;DHT22;7711;46.634;14.318;2023-03-14T02:04:51;8.50;99.90
15217;DHT22;7711;46.634;14.318;2023-03-14T02:07:20;8.30;99.90
15217;DHT22;7711;46.634;14.318;2023-03-14T02:09:50;8.00;99.90
15217;DHT22;7711;46.634;14.318;2023-03-14T02:12:18;7.80;99.90
15217;DHT22;7711;46.634;14.318;2023-03-14T02:14:46;7.70;99.90
15217;DHT22;7711;46.634;14.318;2023-03-14T02:17:16;7.60;99.90
15217;DHT22;7711;46.634;14.318;2023-03-14T02:19:56;7.40;99.90
15217;DHT22;7711;46.634;14.318;2023-03-14T02:22:24;7.30;99.90
15217;DHT22;7711;46.634;14.318;2023-03-14T02:24:57;7.20;99.90
15217;DHT22;7711;46.634;14.318;2023-03-14T02:27:29;7.00;99.90
15217;DHT22;7711;46.634;14.318;2023-03-14T02:29:58;7.00;99.90
15217;DHT22;7711;46.634;14.318;2023-03-14T02:32:27;7.00;99.90
15217;DHT22;7711;46.634;14.318;2023-03-14T02:34:58;7.00;99.90
15217;DHT22;7711;46.634;14.318;2023-03-14T02:37:30;7.00;99.90
15217;DHT22;7711;46.634;14.318;2023-03-14T02:39:59;7.00;99.90
15217;DHT22;7711;46.634;14.318;2023-03-14T02:42:28;6.90;99.90
15217;DHT22;7711;46.634;14.318;2023-03-14T02:44:59;6.70;99.90
15217;DHT22;7711;46.634;14.318;2023-03-14T02:47:29;6.80;99.90
15217;DHT22;7711;46.634;14.318;2023-03-14T02:50:01;6.80;99.90
15217;DHT22;7711;46.634;14.318;2023-03-14T02:52:28;6.80;99.90
15217;DHT22;7711;46.634;14.318;2023-03-14T02:54:55;6.80;99.90
15217;DHT22;7711;46.634;14.318;2023-03-14T02:57:22;6.70;99.90
15217;DHT22;7711;46.634;14.318;2023-03-14T02:59:51;6.70;99.90
15217;DHT22;7711;46.634;14.318;2023-03-14T03:02:18;6.70;99.90
15217;DHT22;7711;46.634;14.318;2023-03-14T03:04:45;6.70;99.90
15217;DHT22;7711;46.634;14.318;2023-03-14T03:07:12;6.50;99.90
15217;DHT22;7711;46.634;14.318;2023-03-14T03:09:39;6.50;99.90
15217;DHT22;7711;46.634;14.318;2023-03-14T03:12:06;6.40;99.90
15217;DHT22;7711;46.634;14.318;2023-03-14T03:14:33;6.40;99.90
15217;DHT22;7711;46.634;14.318;2023-03-14T03:17:02;6.40;99.90
15217;DHT22;7711;46.634;14.318;2023-03-14T03:19:29;6.50;99.90
15217;DHT22;7711;46.634;14.318;2023-03-14T03:21:56;6.60;99.90
15217;DHT22;7711;46.634;14.318;2023-03-14T03:24:23;6.80;99.90
15217;DHT22;7711;46.634;14.318;2023-03-14T03:26:50;6.80;99.90
15217;DHT22;7711;46.634;14.318;2023-03-14T03:29:17;6.80;99.90
15217;DHT22;7711;46.634;14.318;2023-03-14T03:31:44;6.80;99.90
15217;DHT22;7711;46.634;14.318;2023-03-14T03:34:13;6.90;99.90
15217;DHT22;7711;46.634;14.318;2023-03-14T03:36:41;6.90;99.90
15217;DHT22;7711;46.634;14.318;2023-03-14T03:39:08;7.00;99.90
15217;DHT22;7711;46.634;14.318;2023-03-14T03:41:35;7.00;99.90
15217;DHT22;7711;46.634;14.318;2023-03-14T03:44:02;7.00;99.90
15217;DHT22;7711;46.634;14.318;2023-03-14T03:46:29;7.10;99.90
15217;DHT22;7711;46.634;14.318;2023-03-14T03:48:57;7.10;99.90
15217;DHT22;7711;46.634;14.318;2023-03-14T03:51:26;7.10;99.90
15217;DHT22;7711;46.634;14.318;2023-03-14T03:53:53;7.10;99.90
15217;DHT22;7711;46.634;14.318;2023-03-14T03:56:20;7.10;99.90
15217;DHT22;7711;46.634;14.318;2023-03-14T03:58:47;7.10;99.90
15217;DHT22;7711;46.634;14.318;2023-03-14T04:01:14;7.10;99.90
15217;DHT22;7711;46.634;14.318;2023-03-14T04:03:41;7.10;99.90
15217;DHT22;7711;46.634;14.318;2023-03-14T04:06:10;7.20;99.90
15217;DHT22;7711;46.634;14.318;2023-03-14T04:08:39;7.20;99.90
15217;DHT22;7711;46.634;14.318;2023-03-14T04:11:07;7.10;99.90
15217;DHT22;7711;46.634;14.318;2023-03-14T04:13:34;7.10;99.90
15217;DHT22;7711;46.634;14.318;2023-03-14T04:16:01;7.10;99.90
15217;DHT22;7711;46.634;14.318;2023-03-14T04:18:28;7.10;99.90
15217;DHT22;7711;46.634;14.318;2023-03-14T04:20:56;7.10;99.90
15217;DHT22;7711;46.634;14.318;2023-03-14T04:23:24;7.10;99.90
15217;DHT22;7711;46.634;14.318;2023-03-14T04:25:53;7.10;99.90
15217;DHT22;7711;46.634;14.318;2023-03-14T04:28:20;7.00;99.90
15217;DHT22;7711;46.634;14.318;2023-03-14T04:30:47;7.00;99.90
15217;DHT22;7711;46.634;14.318;2023-03-14T04:33:14;7.00;99.90
15217;DHT22;7711;46.634;14.318;2023-03-14T04:35:42;7.00;99.90
15217;DHT22;7711;46.634;14.318;2023-03-14T04:38:09;6.90;99.90
15217;DHT22;7711;46.634;14.318;2023-03-14T04:40:37;7.00;99.90
15217;DHT22;7711;46.634;14.318;2023-03-14T04:43:06;6.90;99.90
15217;DHT22;7711;46.634;14.318;2023-03-14T04:45:33;6.90;99.90
15217;DHT22;7711;46.634;14.318;2023-03-14T04:48:00;6.90;99.90
15217;DHT22;7711;46.634;14.318;2023-03-14T04:50:27;6.90;99.90
15217;DHT22;7711;46.634;14.318;2023-03-14T04:52:54;7.00;99.90
15217;DHT22;7711;46.634;14.318;2023-03-14T04:55:21;7.00;99.90
15217;DHT22;7711;46.634;14.318;2023-03-14T04:57:48;7.00;99.90
15217;DHT22;7711;46.634;14.318;2023-03-14T05:00:17;7.10;99.90
15217;DHT22;7711;46.634;14.318;2023-03-14T05:02:44;7.10;99.90
15217;DHT22;7711;46.634;14.318;2023-03-14T05:05:11;7.20;99.90
15217;DHT22;7711;46.634;14.318;2023-03-14T05:07:38;7.10;99.90
15217;DHT22;7711;46.634;14.318;2023-03-14T05:10:06;7.10;99.90
15217;DHT22;7711;46.634;14.318;2023-03-14T05:12:33;7.00;99.90
15217;DHT22;7711;46.634;14.318;2023-03-14T05:15:00;7.00;99.90
15217;DHT22;7711;46.634;14.318;2023-03-14T05:17:28;7.10;99.90
15217;DHT22;7711;46.634;14.318;2023-03-14T05:19:55;7.20;99.90
15217;DHT22;7711;46.634;14.318;2023-03-14T05:22:22;7.10;99.90
15217;DHT22;7711;46.634;14.318;2023-03-14T05:24:49;7.10;99.90
15217;DHT22;7711;46.634;14.318;2023-03-14T05:27:16;7.10;99.90
15217;DHT22;7711;46.634;14.318;2023-03-14T05:29:43;7.00;99.90
15217;DHT22;7711;46.634;14.318;2023-03-14T05:32:10;7.00;99.90
15217;DHT22;7711;46.634;14.318;2023-03-14T05:34:39;7.00;99.90
15217;DHT22;7711;46.634;14.318;2023-03-14T05:37:06;7.00;99.90
15217;DHT22;7711;46.634;14.318;2023-03-14T05:39:33;7.00;99.90
15217;DHT22;7711;46.634;14.318;2023-03-14T05:42:00;7.00;99.90
15217;DHT22;7711;46.634;14.318;2023-03-14T05:44:27;7.10;99.90
15217;DHT22;7711;46.634;14.318;2023-03-14T05:46:54;7.10;99.90
15217;DHT22;7711;46.634;14.318;2023-03-14T05:49:21;7.10;99.90
15217;DHT22;7711;46.634;14.318;2023-03-14T05:51:49;7.20;99.90
15217;DHT22;7711;46.634;14.318;2023-03-14T05:54:16;7.30;99.90
15217;DHT22;7711;46.634;14.318;2023-03-14T05:56:43;7.40;99.90
15217;DHT22;7711;46.634;14.318;2023-03-14T05:59:10;7.70;99.90
15217;DHT22;7711;46.634;14.318;2023-03-14T06:01:39;7.80;99.90
15217;DHT22;7711;46.634;14.318;2023-03-14T06:04:06;7.70;99.90
15217;DHT22;7711;46.634;14.318;2023-03-14T06:06:33;7.80;99.90
15217;DHT22;7711;46.634;14.318;2023-03-14T06:09:02;7.90;99.90
15217;DHT22;7711;46.634;14.318;2023-03-14T06:11:29;8.00;99.90
15217;DHT22;7711;46.634;14.318;2023-03-14T06:13:56;8.10;99.90
15217;DHT22;7711;46.634;14.318;2023-03-14T06:16:23;8.20;99.90
15217;DHT22;7711;46.634;14.318;2023-03-14T06:18:50;8.30;99.90
15217;DHT22;7711;46.634;14.318;2023-03-14T06:21:17;8.40;99.90
15217;DHT22;7711;46.634;14.318;2023-03-14T06:23:45;8.40;99.90
15217;DHT22;7711;46.634;14.318;2023-03-14T06:26:13;8.60;99.90
15217;DHT22;7711;46.634;14.318;2023-03-14T06:28:40;8.90;99.90
15217;DHT22;7711;46.634;14.318;2023-03-14T06:31:07;8.90;99.90
15217;DHT22;7711;46.634;14.318;2023-03-14T06:33:34;8.80;99.90
15217;DHT22;7711;46.634;14.318;2023-03-14T06:36:01;8.90;99.90
15217;DHT22;7711;46.634;14.318;2023-03-14T06:38:28;9.00;99.90
15217;DHT22;7711;46.634;14.318;2023-03-14T06:40:55;9.20;99.90
15217;DHT22;7711;46.634;14.318;2023-03-14T06:43:24;9.60;99.90
15217;DHT22;7711;46.634;14.318;2023-03-14T06:45:51;9.30;99.90
15217;DHT22;7711;46.634;14.318;2023-03-14T06:48:18;9.40;99.90
15217;DHT22;7711;46.634;14.318;2023-03-14T06:50:45;9.40;99.90
15217;DHT22;7711;46.634;14.318;2023-03-14T06:53:12;9.60;99.90
15217;DHT22;7711;46.634;14.318;2023-03-14T06:55:39;10.50;99.90
15217;DHT22;7711;46.634;14.318;2023-03-14T06:58:06;11.00;99.90
15217;DHT22;7711;46.634;14.318;2023-03-14T07:00:35;11.20;99.90
15217;DHT22;7711;46.634;14.318;2023-03-14T07:03:02;11.40;99.90
15217;DHT22;7711;46.634;14.318;2023-03-14T07:05:29;11.50;99.90
15217;DHT22;7711;46.634;14.318;2023-03-14T07:07:56;11.30;99.90
15217;DHT22;7711;46.634;14.318;2023-03-14T07:10:23;11.40;99.90
15217;DHT22;7711;46.634;14.318;2023-03-14T07:12:50;11.40;99.90
15217;DHT22;7711;46.634;14.318;2023-03-14T07:15:18;11.40;99.90
15217;DHT22;7711;46.634;14.318;2023-03-14T07:17:46;11.70;99.90
15217;DHT22;7711;46.634;14.318;2023-03-14T07:20:14;12.00;99.90
15217;DHT22;7711;46.634;14.318;2023-03-14T07:22:41;12.20;99.90
15217;DHT22;7711;46.634;14.318;2023-03-14T07:25:09;12.40;99.90
15217;DHT22;7711;46.634;14.318;2023-03-14T07:27:37;12.60;99.90
15217;DHT22;7711;46.634;14.318;2023-03-14T07:30:05;12.70;99.90
15217;DHT22;7711;46.634;14.318;2023-03-14T07:32:33;12.80;99.90
15217;DHT22;7711;46.634;14.318;2023-03-14T07:35:01;12.80;99.90
15217;DHT22;7711;46.634;14.318;2023-03-14T07:37:28;12.90;99.90
15217;DHT22;7711;46.634;14.318;2023-03-14T07:39:55;12.90;99.90
15217;DHT22;7711;46.634;14.318;2023-03-14T07:42:22;13.10;99.90
15217;DHT22;7711;46.634;14.318;2023-03-14T07:44:49;13.40;99.90
15217;DHT22;7711;46.634;14.318;2023-03-14T07:47:16;13.60;99.90
15217;DHT22;7711;46.634;14.318;2023-03-14T07:49:43;13.70;99.90
15217;DHT22;7711;46.634;14.318;2023-03-14T07:52:12;13.70;99.90
15217;DHT22;7711;46.634;14.318;2023-03-14T07:54:39;13.70;99.90
15217;DHT22;7711;46.634;14.318;2023-03-14T07:57:06;13.60;99.90
15217;DHT22;7711;46.634;14.318;2023-03-14T07:59:33;13.60;99.90
15217;DHT22;7711;46.634;14.318;2023-03-14T08:02:00;13.60;99.90
15217;DHT22;7711;46.634;14.318;2023-03-14T08:04:27;13.40;99.90
15217;DHT22;7711;46.634;14.318;2023-03-14T08:06:54;13.40;99.90
15217;DHT22;7711;46.634;14.318;2023-03-14T08:09:22;13.40;99.90
15217;DHT22;7711;46.634;14.318;2023-03-14T08:11:49;13.40;99.90
15217;DHT22;7711;46.634;14.318;2023-03-14T08:14:16;13.30;99.90
15217;DHT22;7711;46.634;14.318;2023-03-14T08:16:43;13.30;99.90
15217;DHT22;7711;46.634;14.318;2023-03-14T08:19:10;13.30;99.90
15217;DHT22;7711;46.634;14.318;2023-03-14T08:21:37;13.30;99.90
15217;DHT22;7711;46.634;14.318;2023-03-14T08:24:04;13.30;99.90
15217;DHT22;7711;46.634;14.318;2023-03-14T08:26:33;13.30;99.90
15217;DHT22;7711;46.634;14.318;2023-03-14T08:29:00;13.20;99.90
15217;DHT22;7711;46.634;14.318;2023-03-14T08:31:27;13.10;99.90
15217;DHT22;7711;46.634;14.318;2023-03-14T08:33:54;12.90;99.90
15217;DHT22;7711;46.634;14.318;2023-03-14T08:36:21;12.90;99.90
15217;DHT22;7711;46.634;14.318;2023-03-14T08:38:48;12.90;99.90
15217;DHT22;7711;46.634;14.318;2023-03-14T08:41:15;12.80;99.90
15217;DHT22;7711;46.634;14.318;2023-03-14T08:43:43;12.70;99.90
15217;DHT22;7711;46.634;14.318;2023-03-14T08:46:10;12.60;99.90
15217;DHT22;7711;46.634;14.318;2023-03-14T08:48:37;12.50;99.90
15217;DHT22;7711;46.634;14.318;2023-03-14T08:51:05;12.40;99.90
15217;DHT22;7711;46.634;14.318;2023-03-14T08:53:32;12.40;99.90
15217;DHT22;7711;46.634;14.318;2023-03-14T08:55:59;12.30;99.90
15217;DHT22;7711;46.634;14.318;2023-03-14T08:58:28;12.20;99.90
15217;DHT22;7711;46.634;14.318;2023-03-14T09:00:56;12.10;99.90
15217;DHT22;7711;46.634;14.318;2023-03-14T09:03:23;11.90;99.90
15217;DHT22;7711;46.634;14.318;2023-03-14T09:05:50;11.80;99.90
15217;DHT22;7711;46.634;14.318;2023-03-14T09:08:18;11.60;99.90
15217;DHT22;7711;46.634;14.318;2023-03-14T09:10:45;11.50;99.90
15217;DHT22;7711;46.634;14.318;2023-03-14T09:13:12;11.40;99.90
15217;DHT22;7711;46.634;14.318;2023-03-14T09:15:39;11.20;99.90
15217;DHT22;7711;46.634;14.318;2023-03-14T09:18:09;11.10;99.90
15217;DHT22;7711;46.634;14.318;2023-03-14T09:20:36;11.10;99.90
15217;DHT22;7711;46.634;14.318;2023-03-14T09:23:03;10.90;99.90
15217;DHT22;7711;46.634;14.318;2023-03-14T09:25:30;10.80;99.90
15217;DHT22;7711;46.634;14.318;2023-03-14T09:27:57;10.60;99.90
15217;DHT22;7711;46.634;14.318;2023-03-14T09:30:24;10.60;99.90
15217;DHT22;7711;46.634;14.318;2023-03-14T09:32:51;10.60;99.90
15217;DHT22;7711;46.634;14.318;2023-03-14T09:35:19;10.50;99.90
15217;DHT22;7711;46.634;14.318;2023-03-14T09:37:46;10.60;99.90
15217;DHT22;7711;46.634;14.318;2023-03-14T09:40:15;10.60;99.90
15217;DHT22;7711;46.634;14.318;2023-03-14T09:42:43;10.70;99.90
15217;DHT22;7711;46.634;14.318;2023-03-14T09:45:12;10.50;99.90
15217;DHT22;7711;46.634;14.318;2023-03-14T09:47:41;10.50;99.90
15217;DHT22;7711;46.634;14.318;2023-03-14T09:50:12;10.50;99.90
15217;DHT22;7711;46.634;14.318;2023-03-14T09:52:44;10.60;99.90
15217;DHT22;7711;46.634;14.318;2023-03-14T09:55:13;10.70;99.90
15217;DHT22;7711;46.634;14.318;2023-03-14T09:57:42;10.80;99.90
15217;DHT22;7711;46.634;14.318;2023-03-14T10:00:15;10.80;99.90
15217;DHT22;7711;46.634;14.318;2023-03-14T10:02:47;10.90;99.90
15217;DHT22;7711;46.634;14.318;2023-03-14T10:05:17;11.30;99.90
15217;DHT22;7711;46.634;14.318;2023-03-14T10:07:46;11.50;99.90
15217;DHT22;7711;46.634;14.318;2023-03-14T10:10:16;11.60;99.90
15217;DHT22;7711;46.634;14.318;2023-03-14T10:12:45;11.80;99.90
15217;DHT22;7711;46.634;14.318;2023-03-14T10:15:14;11.90;99.90
15217;DHT22;7711;46.634;14.318;2023-03-14T10:17:47;11.90;99.90
15217;DHT22;7711;46.634;14.318;2023-03-14T10:20:30;11.60;99.90
15217;DHT22;7711;46.634;14.318;2023-03-14T10:23:01;11.60;99.90
15217;DHT22;7711;46.634;14.318;2023-03-14T10:25:30;11.40;99.90
15217;DHT22;7711;46.634;14.318;2023-03-14T10:27:58;11.60;99.90
15217;DHT22;7711;46.634;14.318;2023-03-14T10:30:34;11.60;99.90
15217;DHT22;7711;46.634;14.318;2023-03-14T10:33:10;11.70;99.90
15217;DHT22;7711;46.634;14.318;2023-03-14T10:35:37;11.60;99.90
15217;DHT22;7711;46.634;14.318;2023-03-14T10:38:12;11.40;99.90
15217;DHT22;7711;46.634;14.318;2023-03-14T10:40:45;11.40;99.90
15217;DHT22;7711;46.634;14.318;2023-03-14T10:43:17;11.50;99.90
15217;DHT22;7711;46.634;14.318;2023-03-14T10:45:52;11.40;99.90
15217;DHT22;7711;46.634;14.318;2023-03-14T10:48:29;11.50;99.90
15217;DHT22;7711;46.634;14.318;2023-03-14T10:51:02;11.70;99.90
15217;DHT22;7711;46.634;14.318;2023-03-14T10:53:38;11.70;99.90
15217;DHT22;7711;46.634;14.318;2023-03-14T10:56:06;11.60;99.90
15217;DHT22;7711;46.634;14.318;2023-03-14T10:58:37;11.60;99.90
15217;DHT22;7711;46.634;14.318;2023-03-14T11:01:15;11.60;99.90
15217;DHT22;7711;46.634;14.318;2023-03-14T11:03:51;11.80;99.90
15217;DHT22;7711;46.634;14.318;2023-03-14T11:06:23;12.00;99.90
15217;DHT22;7711;46.634;14.318;2023-03-14T11:08:58;12.00;99.90
15217;DHT22;7711;46.634;14.318;2023-03-14T11:11:31;12.30;99.90
15217;DHT22;7711;46.634;14.318;2023-03-14T11:14:08;12.20;99.90
15217;DHT22;7711;46.634;14.318;2023-03-14T11:16:43;11.90;99.90
15217;DHT22;7711;46.634;14.318;2023-03-14T11:19:35;11.90;99.90
15217;DHT22;7711;46.634;14.318;2023-03-14T11:22:11;11.80;99.90
15217;DHT22;7711;46.634;14.318;2023-03-14T11:24:49;12.40;99.90
15217;DHT22;7711;46.634;14.318;2023-03-14T11:27:23;12.50;99.90
15217;DHT22;7711;46.634;14.318;2023-03-14T11:29:55;12.40;99.90
15217;DHT22;7711;46.634;14.318;2023-03-14T11:32:36;12.10;99.90
15217;DHT22;7711;46.634;14.318;2023-03-14T11:35:13;12.20;99.90
15217;DHT22;7711;46.634;14.318;2023-03-14T11:37:46;12.00;99.90
15217;DHT22;7711;46.634;14.318;2023-03-14T11:40:18;12.10;99.90
15217;DHT22;7711;46.634;14.318;2023-03-14T11:42:48;12.20;99.90
15217;DHT22;7711;46.634;14.318;2023-03-14T11:45:19;12.10;99.90
15217;DHT22;7711;46.634;14.318;2023-03-14T11:47:53;12.10;99.90
15217;DHT22;7711;46.634;14.318;2023-03-14T11:50:25;12.00;99.90
15217;DHT22;7711;46.634;14.318;2023-03-14T11:52:55;12.00;99.90
15217;DHT22;7711;46.634;14.318;2023-03-14T11:55:27;12.00;99.90
15217;DHT22;7711;46.634;14.318;2023-03-14T11:58:00;11.80;99.90
15217;DHT22;7711;46.634;14.318;2023-03-14T12:00:29;12.00;99.90
15217;DHT22;7711;46.634;14.318;2023-03-14T12:03:01;12.40;99.90
15217;DHT22;7711;46.634;14.318;2023-03-14T12:05:55;12.90;99.90
15217;DHT22;7711;46.634;14.318;2023-03-14T12:08:48;12.90;99.90
15217;DHT22;7711;46.634;14.318;2023-03-14T12:11:26;12.50;99.90
15217;DHT22;7711;46.634;14.318;2023-03-14T12:13:54;12.60;99.90
15217;DHT22;7711;46.634;14.318;2023-03-14T12:16:33;12.80;99.90
15217;DHT22;7711;46.634;14.318;2023-03-14T12:22:26;13.00;99.90
15217;DHT22;7711;46.634;14.318;2023-03-14T12:24:55;12.70;99.90
15217;DHT22;7711;46.634;14.318;2023-03-14T12:28:05;12.70;99.90
15217;DHT22;7711;46.634;14.318;2023-03-14T12:30:43;12.70;99.90
15217;DHT22;7711;46.634;14.318;2023-03-14T12:33:30;12.90;99.90
15217;DHT22;7711;46.634;14.318;2023-03-14T12:36:04;13.00;99.90
15217;DHT22;7711;46.634;14.318;2023-03-14T12:38:46;12.90;99.90
15217;DHT22;7711;46.634;14.318;2023-03-14T12:41:17;13.00;99.90
15217;DHT22;7711;46.634;14.318;2023-03-14T12:43:46;13.40;99.90
15217;DHT22;7711;46.634;14.318;2023-03-14T12:46:22;13.10;99.90
15217;DHT22;7711;46.634;14.318;2023-03-14T12:48:50;12.60;99.90
15217;DHT22;7711;46.634;14.318;2023-03-14T12:51:28;12.40;99.90
15217;DHT22;7711;46.634;14.318;2023-03-14T12:54:11;12.30;99.90
15217;DHT22;7711;46.634;14.318;2023-03-14T12:56:58;12.20;99.90
15217;DHT22;7711;46.634;14.318;2023-03-14T12:59:32;12.40;99.90
15217;DHT22;7711;46.634;14.318;2023-03-14T13:02:02;12.70;99.90
15217;DHT22;7711;46.634;14.318;2023-03-14T13:04:43;12.70;99.90
15217;DHT22;7711;46.634;14.318;2023-03-14T13:07:12;13.00;99.90
15217;DHT22;7711;46.634;14.318;2023-03-14T13:10:09;13.00;99.90
15217;DHT22;7711;46.634;14.318;2023-03-14T13:12:48;12.80;99.90
15217;DHT22;7711;46.634;14.318;2023-03-14T13:15:25;13.10;99.90
15217;DHT22;7711;46.634;14.318;2023-03-14T13:17:56;12.80;99.90
15217;DHT22;7711;46.634;14.318;2023-03-14T13:20:30;12.90;99.90
15217;DHT22;7711;46.634;14.318;2023-03-14T13:22:58;12.80;99.90
15217;DHT22;7711;46.634;14.318;2023-03-14T13:25:29;12.80;99.90
15217;DHT22;7711;46.634;14.318;2023-03-14T13:27:57;13.30;99.90
15217;DHT22;7711;46.634;14.318;2023-03-14T13:30:27;14.30;99.90
15217;DHT22;7711;46.634;14.318;2023-03-14T13:32:55;13.90;99.90
15217;DHT22;7711;46.634;14.318;2023-03-14T13:35:25;13.90;99.90
15217;DHT22;7711;46.634;14.318;2023-03-14T13:37:55;14.80;99.90
15217;DHT22;7711;46.634;14.318;2023-03-14T13:40:25;14.60;99.90
15217;DHT22;7711;46.634;14.318;2023-03-14T13:43:05;14.20;99.90
15217;DHT22;7711;46.634;14.318;2023-03-14T13:45:53;14.40;99.90
15217;DHT22;7711;46.634;14.318;2023-03-14T13:48:21;13.50;99.90
15217;DHT22;7711;46.634;14.318;2023-03-14T13:50:54;13.30;99.90
15217;DHT22;7711;46.634;14.318;2023-03-14T13:53:22;13.40;99.90
15217;DHT22;7711;46.634;14.318;2023-03-14T13:55:50;13.70;99.90
15217;DHT22;7711;46.634;14.318;2023-03-14T13:58:25;13.30;99.90
15217;DHT22;7711;46.634;14.318;2023-03-14T14:01:00;13.00;99.90
15217;DHT22;7711;46.634;14.318;2023-03-14T14:03:29;13.00;99.90
15217;DHT22;7711;46.634;14.318;2023-03-14T14:05:57;12.70;99.90
15217;DHT22;7711;46.634;14.318;2023-03-14T14:08:25;12.40;99.90
15217;DHT22;7711;46.634;14.318;2023-03-14T14:10:57;12.20;99.90
15217;DHT22;7711;46.634;14.318;2023-03-14T14:13:25;12.30;99.90
15217;DHT22;7711;46.634;14.318;2023-03-14T14:15:54;12.30;99.90
15217;DHT22;7711;46.634;14.318;2023-03-14T14:18:25;12.40;99.90
15217;DHT22;7711;46.634;14.318;2023-03-14T14:20:54;12.50;99.90
15217;DHT22;7711;46.634;14.318;2023-03-14T14:23:24;12.70;99.90
15217;DHT22;7711;46.634;14.318;2023-03-14T14:25:54;12.50;99.90
15217;DHT22;7711;46.634;14.318;2023-03-14T14:28:25;12.70;99.90
15217;DHT22;7711;46.634;14.318;2023-03-14T14:31:15;13.10;99.90
15217;DHT22;7711;46.634;14.318;2023-03-14T14:33:45;13.10;99.90
15217;DHT22;7711;46.634;14.318;2023-03-14T14:36:17;13.00;99.90
15217;DHT22;7711;46.634;14.318;2023-03-14T14:38:57;12.80;99.90
15217;DHT22;7711;46.634;14.318;2023-03-14T14:41:27;12.40;99.90
15217;DHT22;7711;46.634;14.318;2023-03-14T14:43:56;12.20;99.90
15217;DHT22;7711;46.634;14.318;2023-03-14T14:46:27;12.20;99.90
15217;DHT22;7711;46.634;14.318;2023-03-14T14:48:58;12.30;99.90
15217;DHT22;7711;46.634;14.318;2023-03-14T14:51:32;12.20;99.90
15217;DHT22;7711;46.634;14.318;2023-03-14T14:54:03;12.10;99.90
15217;DHT22;7711;46.634;14.318;2023-03-14T14:56:36;12.10;99.90
15217;DHT22;7711;46.634;14.318;2023-03-14T14:59:05;11.70;99.90
15217;DHT22;7711;46.634;14.318;2023-03-14T15:01:34;11.50;99.90
15217;DHT22;7711;46.634;14.318;2023-03-14T15:04:09;11.40;99.90
15217;DHT22;7711;46.634;14.318;2023-03-14T15:06:38;11.30;99.90
15217;DHT22;7711;46.634;14.318;2023-03-14T15:09:05;11.20;99.90
15217;DHT22;7711;46.634;14.318;2023-03-14T15:11:33;11.20;99.90
15217;DHT22;7711;46.634;14.318;2023-03-14T15:14:00;11.10;99.90
15217;DHT22;7711;46.634;14.318;2023-03-14T15:16:28;11.10;99.90
15217;DHT22;7711;46.634;14.318;2023-03-14T15:18:57;11.10;99.90
15217;DHT22;7711;46.634;14.318;2023-03-14T15:21:27;11.10;99.90
15217;DHT22;7711;46.634;14.318;2023-03-14T15:23:54;10.90;99.90
15217;DHT22;7711;46.634;14.318;2023-03-14T15:26:24;10.90;99.90
15217;DHT22;7711;46.634;14.318;2023-03-14T15:28:51;10.90;99.90
15217;DHT22;7711;46.634;14.318;2023-03-14T15:31:19;11.00;99.90
15217;DHT22;7711;46.634;14.318;2023-03-14T15:33:48;10.90;99.90
15217;DHT22;7711;46.634;14.318;2023-03-14T15:36:21;10.80;99.90
15217;DHT22;7711;46.634;14.318;2023-03-14T15:38:51;10.60;99.90
15217;DHT22;7711;46.634;14.318;2023-03-14T15:41:18;10.50;99.90
15217;DHT22;7711;46.634;14.318;2023-03-14T15:43:46;10.60;99.90
15217;DHT22;7711;46.634;14.318;2023-03-14T15:46:13;10.40;99.90
15217;DHT22;7711;46.634;14.318;2023-03-14T15:48:42;10.40;99.90
15217;DHT22;7711;46.634;14.318;2023-03-14T15:51:09;10.60;99.90
15217;DHT22;7711;46.634;14.318;2023-03-14T15:53:36;10.50;99.90